Time,TemperatureF,DewpointF,PressureIn,WindDirection,WindDirectionDegrees,WindSpeedMPH,WindSpeedGustMPH,Humidity,HourlyPrecipIn,Conditions,Clouds,dailyrainin,SoftwareType,DateUTC
2013-05-11 00:00:00,72.1,64.1,29.96,North,-999,0.0,0.0,76,0.00,,,-99.99,WeatherLink 5.7,2013-05-11 04:00:00,
2013-05-11 00:15:00,71.8,63.8,29.96,North,-999,0.0,0.0,76,0.00,,,-99.99,WeatherLink 5.7,2013-05-11 04:15:00,
2013-05-11 00:30:00,71.5,63.9,29.97,North,-999,0.0,0.0,77,0.00,,,-99.99,WeatherLink 5.7,2013-05-11 04:30:00,
2013-05-11 00:45:00,71.3,64.4,29.97,North,-999,0.0,0.0,79,0.00,,,-99.99,WeatherLink 5.7,2013-05-11 04:45:00,
2013-05-11 01:00:00,71.0,63.8,29.96,North,-999,0.0,0.0,78,0.00,,,-99.99,WeatherLink 5.7,2013-05-11 05:00:00,
2013-05-11 01:15:00,70.8,64.0,29.95,North,-999,0.0,0.0,79,0.00,,,-99.99,WeatherLink 5.7,2013-05-11 05:15:00,
2013-05-11 01:30:00,70.5,64.0,29.96,North,-999,0.0,0.0,80,0.00,,,-99.99,WeatherLink 5.7,2013-05-11 05:30:00,
2013-05-11 01:45:00,70.5,64.0,29.96,North,-999,0.0,0.0,80,0.00,,,-99.99,WeatherLink 5.7,2013-05-11 05:45:00,
2013-05-11 02:00:00,70.5,64.7,29.96,North,-999,0.0,0.0,82,0.00,,,-99.99,WeatherLink 5.7,2013-05-11 06:00:00,
2013-05-11 02:15:00,70.9,65.5,29.95,North,-999,0.0,0.0,83,0.00,,,-99.99,WeatherLink 5.7,2013-05-11 06:15:00,
2013-05-11 02:30:00,71.5,66.1,29.95,North,-999,0.0,0.0,83,0.00,,,-99.99,WeatherLink 5.7,2013-05-11 06:30:00,
2013-05-11 02:45:00,71.8,66.4,29.94,North,-999,0.0,0.0,83,0.00,,,-99.99,WeatherLink 5.7,2013-05-11 06:45:00,
2013-05-11 03:00:00,72.1,66.3,29.92,North,-999,0.0,0.0,82,0.00,,,-99.99,WeatherLink 5.7,2013-05-11 07:00:00,
2013-05-11 03:15:00,72.3,66.8,29.92,North,-999,0.0,0.0,83,0.00,,,-99.99,WeatherLink 5.7,2013-05-11 07:15:00,
2013-05-11 03:30:00,72.1,66.6,29.92,North,-999,0.0,0.0,83,0.00,,,-99.99,WeatherLink 5.7,2013-05-11 07:30:00,
2013-05-11 03:45:00,72.0,66.6,29.91,North,-999,0.0,0.0,83,0.00,,,-99.99,WeatherLink 5.7,2013-05-11 07:45:00,
2013-05-11 04:00:00,71.9,66.5,29.91,North,-999,0.0,0.0,83,0.00,,,-99.99,WeatherLink 5.7,2013-05-11 08:00:00,
2013-05-11 04:15:00,71.7,66.3,29.91,North,-999,0.0,0.0,83,0.00,,,-99.99,WeatherLink 5.7,2013-05-11 08:15:00,
2013-05-11 04:30:00,71.5,66.4,29.91,North,-999,0.0,0.0,84,0.00,,,-99.99,WeatherLink 5.7,2013-05-11 08:30:00,
2013-05-11 04:45:00,71.4,66.3,29.91,North,-999,0.0,0.0,84,0.00,,,-99.99,WeatherLink 5.7,2013-05-11 08:45:00,
2013-05-11 05:00:00,71.2,66.5,29.92,North,-999,0.0,0.0,85,0.00,,,-99.99,WeatherLink 5.7,2013-05-11 09:00:00,
2013-05-11 05:15:00,71.0,66.3,29.92,North,-999,0.0,0.0,85,0.00,,,-99.99,WeatherLink 5.7,2013-05-11 09:15:00,
2013-05-11 05:30:00,70.8,66.1,29.92,North,-999,0.0,0.0,85,0.00,,,-99.99,WeatherLink 5.7,2013-05-11 09:30:00,
2013-05-11 05:45:00,70.8,66.1,29.92,North,-999,0.0,0.0,85,0.00,,,-99.99,WeatherLink 5.7,2013-05-11 09:45:00,
2013-05-11 06:00:00,70.8,66.4,29.92,North,-999,0.0,0.0,86,0.00,,,-99.99,WeatherLink 5.7,2013-05-11 10:00:00,
2013-05-11 06:15:00,70.8,66.4,29.92,North,-999,0.0,0.0,86,0.00,,,-99.99,WeatherLink 5.7,2013-05-11 10:15:00,
2013-05-11 06:30:00,70.8,66.4,29.93,North,-999,0.0,0.0,86,0.00,,,-99.99,WeatherLink 5.7,2013-05-11 10:30:00,
2013-05-11 06:45:00,70.8,66.4,29.93,North,-999,0.0,0.0,86,0.00,,,-99.99,WeatherLink 5.7,2013-05-11 10:45:00,
2013-05-11 07:00:00,70.8,66.7,29.94,North,-999,0.0,0.0,87,0.00,,,-99.99,WeatherLink 5.7,2013-05-11 11:00:00,
2013-05-11 07:15:00,70.9,67.2,29.94,North,-999,0.0,0.0,88,0.00,,,-99.99,WeatherLink 5.7,2013-05-11 11:15:00,
2013-05-11 07:30:00,71.9,68.5,29.94,North,-999,0.0,0.0,89,0.00,,,-99.99,WeatherLink 5.7,2013-05-11 11:30:00,
2013-05-11 07:45:00,73.7,70.3,29.94,North,0,0.0,3.0,89,0.00,,,-99.99,WeatherLink 5.7,2013-05-11 11:45:00,
2013-05-11 08:00:00,74.8,71.3,29.94,North,0,1.0,7.0,89,0.00,,,-99.99,WeatherLink 5.7,2013-05-11 12:00:00,
2013-05-11 08:15:00,75.4,71.9,29.94,North,0,0.0,6.0,89,0.00,,,-99.99,WeatherLink 5.7,2013-05-11 12:15:00,
2013-05-11 08:30:00,75.9,72.1,29.94,North,0,0.0,6.0,88,0.00,,,-99.99,WeatherLink 5.7,2013-05-11 12:30:00,
2013-05-11 08:45:00,76.6,72.4,29.95,North,0,0.0,5.0,87,0.00,,,-99.99,WeatherLink 5.7,2013-05-11 12:45:00,
2013-05-11 09:00:00,77.7,73.2,29.95,North,0,1.0,7.0,86,0.00,,,-99.99,WeatherLink 5.7,2013-05-11 13:00:00,
2013-05-11 09:15:00,79.2,73.9,29.95,North,0,1.0,9.0,84,0.00,,,-99.99,WeatherLink 5.7,2013-05-11 13:15:00,
2013-05-11 09:30:00,80.8,74.4,29.95,North,0,1.0,11.0,81,0.00,,,-99.99,WeatherLink 5.7,2013-05-11 13:30:00,
2013-05-11 09:45:00,81.7,74.2,29.95,North,0,0.0,5.0,78,0.00,,,-99.99,WeatherLink 5.7,2013-05-11 13:45:00,
2013-05-11 10:00:00,83.0,75.0,29.95,North,0,0.0,9.0,77,0.00,,,-99.99,WeatherLink 5.7,2013-05-11 14:00:00,
2013-05-11 10:15:00,83.6,75.2,29.95,North,0,0.0,3.0,76,0.00,,,-99.99,WeatherLink 5.7,2013-05-11 14:15:00,
2013-05-11 10:30:00,83.6,74.8,29.95,North,0,0.0,1.0,75,0.00,,,-99.99,WeatherLink 5.7,2013-05-11 14:30:00,
2013-05-11 10:45:00,84.5,74.9,29.95,North,0,0.0,4.0,73,0.00,,,-99.99,WeatherLink 5.7,2013-05-11 14:45:00,
2013-05-11 11:00:00,84.9,75.3,29.95,North,0,0.0,7.0,73,0.00,,,-99.99,WeatherLink 5.7,2013-05-11 15:00:00,
2013-05-11 11:15:00,85.2,73.9,29.95,North,-999,0.0,0.0,69,0.00,,,-99.99,WeatherLink 5.7,2013-05-11 15:15:00,
2013-05-11 11:30:00,85.5,73.7,29.94,North,0,0.0,1.0,68,0.00,,,-99.99,WeatherLink 5.7,2013-05-11 15:30:00,
2013-05-11 11:45:00,85.5,73.7,29.95,North,-999,0.0,0.0,68,0.00,,,-99.99,WeatherLink 5.7,2013-05-11 15:45:00,
2013-05-11 12:00:00,85.7,73.5,29.96,North,0,0.0,1.0,67,0.00,,,-99.99,WeatherLink 5.7,2013-05-11 16:00:00,
2013-05-11 12:15:00,86.5,74.2,29.96,North,0,0.0,6.0,67,0.00,,,-99.99,WeatherLink 5.7,2013-05-11 16:15:00,
2013-05-11 12:30:00,87.5,73.8,29.94,North,0,0.0,9.0,64,0.00,,,-99.99,WeatherLink 5.7,2013-05-11 16:30:00,
2013-05-11 12:45:00,87.9,73.3,29.94,North,0,0.0,7.0,62,0.00,,,-99.99,WeatherLink 5.7,2013-05-11 16:45:00,
2013-05-11 13:00:00,87.7,71.6,29.94,North,0,0.0,4.0,59,0.00,,,-99.99,WeatherLink 5.7,2013-05-11 17:00:00,
2013-05-11 13:15:00,87.7,71.6,29.94,North,0,0.0,5.0,59,0.00,,,-99.99,WeatherLink 5.7,2013-05-11 17:15:00,
2013-05-11 13:30:00,88.3,71.6,29.95,North,0,0.0,4.0,58,0.00,,,-99.99,WeatherLink 5.7,2013-05-11 17:30:00,
2013-05-11 13:45:00,88.4,71.2,29.94,North,0,0.0,1.0,57,0.00,,,-99.99,WeatherLink 5.7,2013-05-11 17:45:00,
2013-05-11 14:00:00,88.8,71.6,29.94,North,0,0.0,6.0,57,0.00,,,-99.99,WeatherLink 5.7,2013-05-11 18:00:00,
2013-05-11 14:15:00,89.2,71.5,29.94,North,0,0.0,7.0,56,0.00,,,-99.99,WeatherLink 5.7,2013-05-11 18:15:00,
2013-05-11 14:30:00,89.6,71.8,29.93,North,0,0.0,12.0,56,0.00,,,-99.99,WeatherLink 5.7,2013-05-11 18:30:00,
2013-05-11 14:45:00,89.4,72.2,29.93,North,0,0.0,4.0,57,0.00,,,-99.99,WeatherLink 5.7,2013-05-11 18:45:00,
2013-05-11 15:00:00,88.8,72.1,29.93,North,0,0.0,5.0,58,0.00,,,-99.99,WeatherLink 5.7,2013-05-11 19:00:00,
2013-05-11 15:15:00,88.2,72.6,29.93,North,0,0.0,5.0,60,0.00,,,-99.99,WeatherLink 5.7,2013-05-11 19:15:00,
2013-05-11 15:30:00,87.6,73.0,29.93,North,0,0.0,5.0,62,0.00,,,-99.99,WeatherLink 5.7,2013-05-11 19:30:00,
2013-05-11 15:45:00,87.3,72.7,29.93,North,0,0.0,5.0,62,0.00,,,-99.99,WeatherLink 5.7,2013-05-11 19:45:00,
2013-05-11 16:00:00,86.7,72.1,29.92,North,0,0.0,5.0,62,0.00,,,-99.99,WeatherLink 5.7,2013-05-11 20:00:00,
2013-05-11 16:15:00,86.6,72.5,29.92,North,0,0.0,3.0,63,0.00,,,-99.99,WeatherLink 5.7,2013-05-11 20:15:00,
2013-05-11 16:30:00,86.1,72.5,29.92,North,0,0.0,7.0,64,0.00,,,-99.99,WeatherLink 5.7,2013-05-11 20:30:00,
2013-05-11 16:45:00,85.2,72.1,29.93,North,0,0.0,7.0,65,0.00,,,-99.99,WeatherLink 5.7,2013-05-11 20:45:00,
2013-05-11 17:00:00,84.4,72.7,29.93,North,0,0.0,2.0,68,0.00,,,-99.99,WeatherLink 5.7,2013-05-11 21:00:00,
2013-05-11 17:15:00,84.0,72.3,29.93,North,0,0.0,3.0,68,0.00,,,-99.99,WeatherLink 5.7,2013-05-11 21:15:00,
2013-05-11 17:30:00,83.5,72.7,29.93,North,0,0.0,4.0,70,0.00,,,-99.99,WeatherLink 5.7,2013-05-11 21:30:00,
2013-05-11 17:45:00,83.0,72.2,29.93,North,0,0.0,4.0,70,0.00,,,-99.99,WeatherLink 5.7,2013-05-11 21:45:00,
2013-05-11 18:00:00,82.5,72.1,29.93,North,0,0.0,3.0,71,0.00,,,-99.99,WeatherLink 5.7,2013-05-11 22:00:00,
2013-05-11 18:15:00,82.2,72.3,29.92,North,0,0.0,1.0,72,0.00,,,-99.99,WeatherLink 5.7,2013-05-11 22:15:00,
2013-05-11 18:30:00,81.8,72.3,29.92,North,-999,0.0,0.0,73,0.00,,,-99.99,WeatherLink 5.7,2013-05-11 22:30:00,
2013-05-11 18:45:00,81.2,69.6,29.94,North,0,3.0,17.0,68,0.00,,,-99.99,WeatherLink 5.7,2013-05-11 22:45:00,
2013-05-11 19:00:00,78.2,68.4,29.93,North,0,6.0,16.0,72,0.00,,,-99.99,WeatherLink 5.7,2013-05-11 23:00:00,
2013-05-11 19:15:00,76.4,67.9,29.94,North,0,4.0,14.0,75,0.00,,,-99.99,WeatherLink 5.7,2013-05-11 23:15:00,
2013-05-11 19:30:00,75.4,67.3,29.94,North,0,1.0,6.0,76,0.00,,,-99.99,WeatherLink 5.7,2013-05-11 23:30:00,
2013-05-11 19:45:00,74.6,66.1,29.93,North,0,1.0,6.0,75,0.00,,,-99.99,WeatherLink 5.7,2013-05-11 23:45:00,
2013-05-11 20:00:00,74.1,66.0,29.92,North,-999,0.0,0.0,76,0.00,,,-99.99,WeatherLink 5.7,2013-05-12 00:00:00,
2013-05-11 20:15:00,73.8,65.8,29.92,North,-999,0.0,0.0,76,0.00,,,-99.99,WeatherLink 5.7,2013-05-12 00:15:00,
2013-05-11 20:30:00,73.5,65.5,29.93,North,-999,0.0,0.0,76,0.00,,,-99.99,WeatherLink 5.7,2013-05-12 00:30:00,
2013-05-11 20:45:00,73.1,65.5,29.93,North,-999,0.0,0.0,77,0.00,,,-99.99,WeatherLink 5.7,2013-05-12 00:45:00,
2013-05-11 21:00:00,72.9,65.6,29.93,North,-999,0.0,0.0,78,0.00,,,-99.99,WeatherLink 5.7,2013-05-12 01:00:00,
2013-05-11 21:15:00,72.8,65.5,29.92,North,-999,0.0,0.0,78,0.00,,,-99.99,WeatherLink 5.7,2013-05-12 01:15:00,
2013-05-11 21:45:00,72.6,66.1,29.92,North,-999,0.0,0.0,80,0.00,,,-99.99,WeatherLink 5.7,2013-05-12 01:45:00,
2013-05-11 21:55:00,72.7,65.8,29.92,North,-999,0.0,0.0,79,0.00,,,-99.99,WeatherLink 5.7,2013-05-12 01:55:00,
2013-05-11 22:00:00,72.4,65.9,29.93,North,-999,0.0,0.0,80,0.00,,,-99.99,WeatherLink 5.7,2013-05-12 02:00:00,
2013-05-11 22:30:00,72.1,65.9,29.94,North,-999,0.0,0.0,81,0.00,,,-99.99,WeatherLink 5.7,2013-05-12 02:30:00,
2013-05-11 22:40:00,72.3,65.8,29.94,North,-999,0.0,0.0,80,0.00,,,-99.99,WeatherLink 5.7,2013-05-12 02:40:00,
2013-05-11 22:45:00,72.0,65.8,29.95,North,-999,0.0,0.0,81,0.00,,,-99.99,WeatherLink 5.7,2013-05-12 02:45:00,
2013-05-11 23:00:00,71.6,65.5,29.95,North,-999,0.0,0.0,81,0.00,,,-99.99,WeatherLink 5.7,2013-05-12 03:00:00,
2013-05-11 23:15:00,71.4,65.3,29.94,North,-999,0.0,0.0,81,0.00,,,-99.99,WeatherLink 5.7,2013-05-12 03:15:00,
2013-05-11 23:30:00,71.2,65.4,29.94,North,-999,0.0,0.0,82,0.00,,,-99.99,WeatherLink 5.7,2013-05-12 03:30:00,
2013-05-11 23:45:00,71.2,65.8,29.94,North,-999,0.0,0.0,83,0.00,,,-99.99,WeatherLink 5.7,2013-05-12 03:45:00,